Time;durP1;ratioP1;P1;durP2;ratioP2;P2;SDS_P1;SDS_P2;PMS_P1;PMS_P2;Temp;Humidity;BMP_temperature;BMP_pressure;BME280_temperature;BME280_humidity;BME280_pressure;Samples;Min_cycle;Max_cycle;Signal;HPM_P1;HPM_P2
2024/03/27 00:00:16;;;;;;;5.85;1.73;;;12.00;99.90;;;;;;5008205;28;20034;-72
2024/03/27 00:02:41;;;;;;;2.13;0.80;;;12.00;99.90;;;;;;5012515;28;20499;-73
2024/03/27 00:05:07;;;;;;;2.53;1.10;;;12.00;99.90;;;;;;5011338;28;20033;-71
2024/03/27 00:07:33;;;;;;;2.70;0.90;;;12.00;99.90;;;;;;5011339;28;20030;-72
2024/03/27 00:09:59;;;;;;;4.80;1.10;;;12.00;99.90;;;;;;5009269;28;20031;-72
2024/03/27 00:12:24;;;;;;;4.25;0.80;;;11.90;99.90;;;;;;5010101;28;20057;-72
2024/03/27 00:14:50;;;;;;;3.97;1.00;;;11.80;99.90;;;;;;5014904;28;20053;-73
2024/03/27 00:17:15;;;;;;;2.75;1.10;;;11.80;99.90;;;;;;5009696;28;20044;-72
2024/03/27 00:19:41;;;;;;;5.72;0.98;;;11.70;99.90;;;;;;5014372;28;20127;-74
2024/03/27 00:22:07;;;;;;;5.63;1.00;;;11.70;99.90;;;;;;5006901;28;20052;-72
2024/03/27 00:24:32;;;;;;;4.13;1.25;;;11.70;99.90;;;;;;5011560;28;20038;-72
2024/03/27 00:26:58;;;;;;;4.45;1.25;;;11.60;99.90;;;;;;5010811;28;20046;-73
2024/03/27 00:29:24;;;;;;;5.63;1.50;;;11.50;99.90;;;;;;5014179;28;20037;-73
2024/03/27 00:31:49;;;;;;;5.75;2.00;;;11.40;99.90;;;;;;5012007;28;20450;-72
2024/03/27 00:34:16;;;;;;;5.30;1.50;;;11.30;99.90;;;;;;5014703;28;20044;-73
2024/03/27 00:36:41;;;;;;;2.65;1.30;;;11.20;99.90;;;;;;5005149;28;20033;-73
2024/03/27 00:39:07;;;;;;;4.47;2.03;;;11.10;99.90;;;;;;4995194;28;20642;-71
2024/03/27 00:41:32;;;;;;;4.68;1.20;;;11.00;99.90;;;;;;5008459;28;20442;-73
2024/03/27 00:43:58;;;;;;;5.93;1.80;;;11.00;99.90;;;;;;5004197;28;20050;-73
2024/03/27 00:46:24;;;;;;;2.95;1.23;;;11.00;99.90;;;;;;5006842;28;20069;-72
2024/03/27 00:48:49;;;;;;;5.10;1.38;;;11.00;99.90;;;;;;5002444;28;20035;-72
2024/03/27 00:51:15;;;;;;;9.55;1.65;;;11.00;99.90;;;;;;5007165;28;20124;-70
2024/03/27 00:53:41;;;;;;;3.40;1.40;;;10.90;99.90;;;;;;4999134;28;20077;-73
2024/03/27 00:56:07;;;;;;;6.78;1.88;;;11.00;99.90;;;;;;5008656;28;20041;-74
2024/03/27 00:58:32;;;;;;;3.25;1.40;;;11.00;99.90;;;;;;5001426;28;20112;-73
2024/03/27 01:00:58;;;;;;;4.47;1.20;;;11.00;99.90;;;;;;4992338;28;20068;-72
2024/03/27 01:03:24;;;;;;;5.53;1.40;;;11.00;99.90;;;;;;5001493;28;20074;-72
2024/03/27 01:05:50;;;;;;;4.25;1.60;;;11.00;99.90;;;;;;5007297;28;20125;-72
2024/03/27 01:08:16;;;;;;;5.07;1.40;;;11.00;99.90;;;;;;4982834;28;20128;-71
2024/03/27 01:10:43;;;;;;;6.40;2.22;;;11.00;99.90;;;;;;5000715;28;20118;-72
2024/03/27 01:13:09;;;;;;;5.82;1.42;;;11.10;99.90;;;;;;5005381;28;20034;-72
2024/03/27 01:15:36;;;;;;;3.83;1.20;;;11.10;99.90;;;;;;5005036;28;20845;-72
2024/03/27 01:18:03;;;;;;;3.67;1.13;;;11.10;99.90;;;;;;5012329;28;20100;-74
2024/03/27 01:20:30;;;;;;;3.33;1.42;;;11.20;99.90;;;;;;5008972;28;20040;-74
2024/03/27 01:22:56;;;;;;;3.78;1.25;;;11.20;99.90;;;;;;4987674;28;20451;-73
2024/03/27 01:25:22;;;;;;;6.25;1.45;;;11.20;99.90;;;;;;5004703;28;20124;-73
2024/03/27 01:27:47;;;;;;;6.88;1.25;;;11.20;99.90;;;;;;5003642;28;20547;-73
2024/03/27 01:30:13;;;;;;;7.20;1.52;;;11.30;99.90;;;;;;5009965;28;24980;-74
2024/03/27 01:32:39;;;;;;;5.18;1.33;;;11.30;99.90;;;;;;4999963;28;20041;-73
2024/03/27 01:35:04;;;;;;;7.10;1.15;;;11.30;99.90;;;;;;5010826;28;20104;-73
2024/03/27 01:37:30;;;;;;;6.22;1.92;;;11.30;99.90;;;;;;5006689;28;20588;-74
2024/03/27 01:39:56;;;;;;;7.03;1.13;;;11.40;99.90;;;;;;5009582;28;20038;-70
2024/03/27 01:42:21;;;;;;;5.75;0.90;;;11.40;99.90;;;;;;5011550;28;20048;-74
2024/03/27 01:44:47;;;;;;;8.27;1.45;;;11.50;99.90;;;;;;5011610;28;20089;-74
2024/03/27 01:47:13;;;;;;;6.93;1.95;;;11.50;99.90;;;;;;4996394;28;20029;-73
2024/03/27 01:49:40;;;;;;;6.28;1.80;;;11.50;99.90;;;;;;5004059;28;20026;-73
2024/03/27 01:52:06;;;;;;;3.60;1.00;;;11.50;99.90;;;;;;5013704;28;20041;-73
2024/03/27 01:54:32;;;;;;;4.32;1.20;;;11.50;99.90;;;;;;5010588;28;20525;-73
2024/03/27 01:56:58;;;;;;;5.30;1.25;;;11.50;99.90;;;;;;5012515;28;20029;-74
2024/03/27 01:59:25;;;;;;;7.90;1.45;;;11.40;99.90;;;;;;5010053;28;20044;-74
2024/03/27 02:01:52;;;;;;;5.97;1.35;;;11.40;99.90;;;;;;5011126;28;20192;-73
2024/03/27 02:04:18;;;;;;;6.95;1.55;;;11.40;99.90;;;;;;5013684;28;20118;-72
2024/03/27 02:06:43;;;;;;;8.48;1.08;;;11.30;99.90;;;;;;4993943;28;20042;-74
2024/03/27 02:09:09;;;;;;;9.25;2.17;;;11.30;99.90;;;;;;5017421;28;20040;-73
2024/03/27 02:11:35;;;;;;;6.32;1.42;;;11.30;99.90;;;;;;5010882;28;20037;-72
2024/03/27 02:14:00;;;;;;;2.97;1.58;;;11.20;99.90;;;;;;5009925;28;20176;-73
2024/03/27 02:16:26;;;;;;;4.57;1.42;;;11.30;99.90;;;;;;5012120;28;20116;-72
2024/03/27 02:18:52;;;;;;;5.15;0.95;;;11.20;99.90;;;;;;5010965;28;20519;-72
2024/03/27 02:21:18;;;;;;;4.22;1.10;;;11.10;99.90;;;;;;5013754;28;20423;-70
2024/03/27 02:24:03;;;;;;;5.60;1.10;;;11.10;99.90;;;;;;5011613;28;20064;-73
2024/03/27 02:26:37;;;;;;;10.10;1.60;;;11.10;99.90;;;;;;5013574;28;20103;-73
2024/03/27 02:29:03;;;;;;;6.95;1.88;;;11.20;99.90;;;;;;5013210;28;20507;-74
2024/03/27 02:31:30;;;;;;;6.85;1.95;;;11.20;99.90;;;;;;5012534;28;20443;-73
2024/03/27 02:33:55;;;;;;;4.88;1.45;;;11.20;99.90;;;;;;5006940;28;20049;-73
2024/03/27 02:36:21;;;;;;;7.22;1.20;;;11.10;99.90;;;;;;5009302;28;20033;-73
2024/03/27 02:38:47;;;;;;;7.93;2.13;;;11.10;99.90;;;;;;5011473;28;20030;-73
2024/03/27 02:41:13;;;;;;;3.17;1.40;;;11.10;99.90;;;;;;4996685;28;20048;-73
2024/03/27 02:43:38;;;;;;;6.07;1.58;;;11.10;99.90;;;;;;5010354;28;20113;-73
2024/03/27 02:46:04;;;;;;;3.67;1.33;;;11.00;99.90;;;;;;5015445;28;20029;-74
2024/03/27 02:48:30;;;;;;;5.57;1.63;;;10.90;99.90;;;;;;5013718;28;20500;-74
2024/03/27 02:50:56;;;;;;;3.13;1.20;;;10.90;99.90;;;;;;5002866;28;20046;-73
2024/03/27 02:53:21;;;;;;;8.25;1.60;;;10.90;99.90;;;;;;5014394;28;20043;-74
2024/03/27 02:55:51;;;;;;;8.77;2.15;;;10.90;99.90;;;;;;5009895;28;20056;-72
2024/03/27 02:58:16;;;;;;;7.70;1.30;;;10.80;99.90;;;;;;5010666;28;20522;-73
2024/03/27 03:00:43;;;;;;;6.95;1.88;;;10.90;99.90;;;;;;5011282;28;20037;-73
2024/03/27 03:03:09;;;;;;;8.32;1.33;;;10.80;99.90;;;;;;5014947;28;20033;-73
2024/03/27 03:05:35;;;;;;;6.63;1.83;;;10.80;99.90;;;;;;5013944;28;20574;-74
2024/03/27 03:08:00;;;;;;;5.10;1.50;;;10.80;99.90;;;;;;5014495;28;20033;-73
2024/03/27 03:10:26;;;;;;;6.65;1.50;;;10.70;99.90;;;;;;5015964;28;20034;-73
2024/03/27 03:12:52;;;;;;;4.07;1.55;;;10.70;99.90;;;;;;5013255;28;20027;-73
2024/03/27 03:15:18;;;;;;;8.02;1.60;;;10.70;99.90;;;;;;5010602;28;20530;-73
2024/03/27 03:17:45;;;;;;;3.17;1.45;;;10.60;99.90;;;;;;5007601;28;20034;-73
2024/03/27 03:20:12;;;;;;;4.60;1.45;;;10.60;99.90;;;;;;5015087;28;20029;-73
2024/03/27 03:22:38;;;;;;;5.82;1.70;;;10.60;99.90;;;;;;5016129;28;20034;-73
2024/03/27 03:25:04;;;;;;;3.53;1.50;;;10.60;99.90;;;;;;5010721;28;20043;-72
2024/03/27 03:27:30;;;;;;;4.07;1.77;;;10.70;99.90;;;;;;5014009;28;20034;-74
2024/03/27 03:29:55;;;;;;;7.82;1.73;;;10.70;99.90;;;;;;5015472;28;20036;-73
2024/03/27 03:32:21;;;;;;;8.85;1.58;;;10.70;99.90;;;;;;5012193;28;20450;-73
2024/03/27 03:34:47;;;;;;;7.13;1.58;;;10.70;99.90;;;;;;5015603;28;20502;-73
2024/03/27 03:37:12;;;;;;;5.72;2.03;;;10.70;99.90;;;;;;5013404;28;20491;-73
2024/03/27 03:39:38;;;;;;;3.95;1.13;;;10.70;99.90;;;;;;5009259;28;20100;-73
2024/03/27 03:42:04;;;;;;;9.75;1.52;;;10.70;99.90;;;;;;5015466;28;20072;-73
2024/03/27 03:44:29;;;;;;;5.85;1.30;;;10.70;99.90;;;;;;5013991;28;20058;-73
2024/03/27 03:46:55;;;;;;;4.47;1.80;;;10.70;99.90;;;;;;5015201;28;20461;-73
2024/03/27 03:49:21;;;;;;;5.00;1.52;;;10.70;99.90;;;;;;5015276;28;20045;-72
2024/03/27 03:51:46;;;;;;;5.03;1.60;;;10.70;99.90;;;;;;5012862;28;20033;-73
2024/03/27 03:54:12;;;;;;;8.15;1.67;;;10.70;99.90;;;;;;5017724;28;20037;-73
2024/03/27 03:56:39;;;;;;;3.33;1.15;;;10.60;99.90;;;;;;5009433;28;20137;-74
2024/03/27 03:59:05;;;;;;;2.70;1.17;;;10.60;99.90;;;;;;4994905;28;20113;-72
2024/03/27 04:01:31;;;;;;;5.85;1.83;;;10.60;99.90;;;;;;5006262;28;20038;-73
2024/03/27 04:03:56;;;;;;;4.95;1.50;;;10.70;99.90;;;;;;5000733;28;20053;-72
2024/03/27 04:06:22;;;;;;;6.47;1.40;;;10.70;99.90;;;;;;5009486;28;20038;-74
2024/03/27 04:08:48;;;;;;;7.88;1.20;;;10.70;99.90;;;;;;5000905;28;20025;-72
2024/03/27 04:11:13;;;;;;;7.05;1.23;;;10.70;99.90;;;;;;5004192;28;20036;-73
2024/03/27 04:13:39;;;;;;;2.55;1.75;;;10.70;99.90;;;;;;5007789;28;20053;-74
2024/03/27 04:16:07;;;;;;;4.05;1.50;;;10.70;99.90;;;;;;5002473;28;20061;-72
2024/03/27 04:18:33;;;;;;;5.38;1.10;;;10.70;99.90;;;;;;5009925;28;20116;-72
2024/03/27 04:20:58;;;;;;;7.68;1.75;;;10.70;99.90;;;;;;5005168;28;20121;-72
2024/03/27 04:23:24;;;;;;;2.42;1.17;;;10.70;99.90;;;;;;5009228;28;20057;-72
2024/03/27 04:25:50;;;;;;;3.08;0.93;;;10.70;99.90;;;;;;5009473;28;20104;-72
2024/03/27 04:28:16;;;;;;;5.38;1.00;;;10.80;99.90;;;;;;5006476;28;20050;-72
2024/03/27 04:30:43;;;;;;;7.13;1.15;;;10.80;99.90;;;;;;5006171;28;20038;-72
2024/03/27 04:33:12;;;;;;;3.42;0.82;;;10.80;99.90;;;;;;5005742;28;20128;-72
2024/03/27 04:35:37;;;;;;;2.65;0.65;;;10.80;99.90;;;;;;5008333;28;20541;-73
2024/03/27 04:38:03;;;;;;;3.60;0.70;;;10.80;99.90;;;;;;5003205;28;20066;-72
2024/03/27 04:40:29;;;;;;;7.60;1.30;;;10.80;99.90;;;;;;5010827;28;20644;-72
2024/03/27 04:42:54;;;;;;;4.55;0.68;;;10.80;99.90;;;;;;5006814;28;20026;-73
2024/03/27 04:45:21;;;;;;;2.53;0.88;;;10.80;99.90;;;;;;5009852;28;20034;-72
2024/03/27 04:47:47;;;;;;;1.35;0.80;;;10.80;99.90;;;;;;5006525;28;20036;-73
2024/03/27 04:50:13;;;;;;;3.97;0.60;;;10.80;99.90;;;;;;4988463;28;20077;-70
2024/03/27 04:52:38;;;;;;;2.30;0.93;;;10.80;99.90;;;;;;5012930;28;20041;-74
2024/03/27 04:55:04;;;;;;;8.23;1.00;;;10.80;99.90;;;;;;5004403;28;20053;-73
2024/03/27 04:57:31;;;;;;;7.00;0.77;;;10.80;99.90;;;;;;5010614;28;20517;-73
2024/03/27 04:59:56;;;;;;;3.53;0.80;;;10.80;99.90;;;;;;5000365;28;20106;-73
2024/03/27 05:02:22;;;;;;;2.25;0.88;;;10.80;99.90;;;;;;5011987;28;20117;-73
2024/03/27 05:04:49;;;;;;;3.25;1.20;;;10.80;99.90;;;;;;4991315;28;20072;-72
2024/03/27 05:07:15;;;;;;;2.28;0.70;;;10.80;99.90;;;;;;5009213;28;20726;-74
2024/03/27 05:09:40;;;;;;;1.23;0.40;;;10.70;99.90;;;;;;5003555;28;20029;-74
2024/03/27 05:12:06;;;;;;;2.15;1.10;;;10.70;99.90;;;;;;4989140;28;20038;-72
2024/03/27 05:14:31;;;;;;;4.65;1.20;;;10.60;99.90;;;;;;5012433;28;20073;-73
2024/03/27 05:16:57;;;;;;;1.80;0.82;;;10.50;99.90;;;;;;5012516;28;20495;-73
2024/03/27 05:19:23;;;;;;;4.00;1.33;;;10.40;99.90;;;;;;5015157;28;20060;-73
2024/03/27 05:21:52;;;;;;;3.70;1.00;;;10.30;99.90;;;;;;5010839;28;21414;-72
2024/03/27 05:24:18;;;;;;;1.45;0.70;;;10.20;99.90;;;;;;4996286;28;20030;-73
2024/03/27 05:26:46;;;;;;;3.25;1.02;;;10.20;99.90;;;;;;5012732;28;20049;-72
2024/03/27 05:29:12;;;;;;;3.45;0.80;;;10.10;99.90;;;;;;5010191;28;20030;-73
2024/03/27 05:31:57;;;;;;;2.45;0.90;;;10.10;99.90;;;;;;5008915;28;20130;-74
2024/03/27 05:34:24;;;;;;;5.82;1.20;;;10.10;99.90;;;;;;5001680;28;20486;-73
2024/03/27 05:36:49;;;;;;;2.95;0.70;;;10.00;99.90;;;;;;5006394;28;20124;-71
2024/03/27 05:39:16;;;;;;;5.22;0.98;;;9.90;99.90;;;;;;5013199;28;20168;-73
2024/03/27 05:41:44;;;;;;;2.97;1.27;;;9.90;99.90;;;;;;5017760;28;20033;-71
2024/03/27 05:44:10;;;;;;;4.25;1.35;;;9.80;99.90;;;;;;4991566;28;20751;-73
2024/03/27 05:46:36;;;;;;;4.60;1.48;;;9.80;99.90;;;;;;5004901;28;20519;-74
2024/03/27 05:49:03;;;;;;;4.25;2.15;;;9.70;99.90;;;;;;5005991;28;20092;-73
2024/03/27 05:51:30;;;;;;;7.28;2.08;;;9.70;99.90;;;;;;5012178;28;20084;-73
2024/03/27 05:53:56;;;;;;;6.55;2.10;;;9.60;99.90;;;;;;5002403;28;20124;-70
2024/03/27 05:56:23;;;;;;;8.38;2.13;;;9.60;99.90;;;;;;5009736;28;20037;-70
2024/03/27 05:58:50;;;;;;;6.00;2.88;;;9.60;99.90;;;;;;5006039;28;20121;-71
2024/03/27 06:01:15;;;;;;;6.10;2.47;;;9.50;99.90;;;;;;5002170;28;20041;-73
2024/03/27 06:03:44;;;;;;;3.88;2.33;;;9.50;99.90;;;;;;5007571;28;20038;-74
2024/03/27 06:06:10;;;;;;;11.10;2.63;;;9.50;99.90;;;;;;5005176;28;20031;-73
2024/03/27 06:08:36;;;;;;;5.10;2.25;;;9.50;99.90;;;;;;5004850;28;20045;-71
2024/03/27 06:11:01;;;;;;;5.30;2.53;;;9.50;99.90;;;;;;5004222;28;20038;-72
2024/03/27 06:13:27;;;;;;;7.72;1.80;;;9.50;99.90;;;;;;5002345;28;20042;-73
2024/03/27 06:15:53;;;;;;;4.18;1.70;;;9.50;99.90;;;;;;5005853;28;20037;-72
2024/03/27 06:18:18;;;;;;;5.30;1.90;;;9.50;99.90;;;;;;5006611;28;20034;-73
2024/03/27 06:20:45;;;;;;;5.78;2.03;;;9.50;99.90;;;;;;5003331;28;20125;-74
2024/03/27 06:23:11;;;;;;;5.50;1.48;;;9.50;99.90;;;;;;5006690;28;20034;-74
2024/03/27 06:25:36;;;;;;;2.95;1.17;;;9.50;99.90;;;;;;5006057;28;20032;-75
2024/03/27 06:28:02;;;;;;;3.78;1.13;;;9.50;99.90;;;;;;5002524;28;20053;-73
2024/03/27 06:30:30;;;;;;;6.07;2.03;;;9.50;99.90;;;;;;5008442;28;20561;-71
2024/03/27 06:32:56;;;;;;;7.68;1.60;;;9.50;99.90;;;;;;4997727;28;20036;-71
2024/03/27 06:35:22;;;;;;;4.00;1.80;;;9.50;99.90;;;;;;5005345;28;20026;-73
2024/03/27 06:37:48;;;;;;;10.60;1.92;;;9.60;99.90;;;;;;5006761;28;20041;-72
2024/03/27 06:40:14;;;;;;;4.45;2.03;;;9.60;99.90;;;;;;5009753;28;20037;-72
2024/03/27 06:42:40;;;;;;;11.60;2.08;;;9.60;99.90;;;;;;5000899;28;20036;-73
2024/03/27 06:45:06;;;;;;;10.82;2.80;;;9.60;99.90;;;;;;5005168;28;20030;-73
2024/03/27 06:47:32;;;;;;;5.88;3.17;;;9.60;99.90;;;;;;4990798;28;20399;-72
2024/03/27 06:49:58;;;;;;;7.30;2.97;;;9.70;99.90;;;;;;5005998;28;20030;-70
2024/03/27 06:52:25;;;;;;;8.82;3.58;;;9.70;99.90;;;;;;5003755;28;20033;-73
2024/03/27 06:54:51;;;;;;;11.57;3.90;;;9.70;99.90;;;;;;5005973;28;20037;-72
2024/03/27 06:57:17;;;;;;;9.40;3.20;;;9.80;99.90;;;;;;5009319;28;20580;-73
2024/03/27 06:59:43;;;;;;;6.72;3.85;;;9.80;99.90;;;;;;4987726;28;20353;-71
2024/03/27 07:02:09;;;;;;;9.95;3.58;;;9.80;99.90;;;;;;5004394;28;20140;-73
2024/03/27 07:04:36;;;;;;;10.02;3.42;;;9.80;99.90;;;;;;4990056;28;20034;-72
2024/03/27 07:07:02;;;;;;;8.18;3.30;;;9.80;99.90;;;;;;4987666;28;20038;-73
2024/03/27 07:09:28;;;;;;;7.68;3.33;;;9.70;99.90;;;;;;4993409;28;20038;-73
2024/03/27 07:11:55;;;;;;;4.82;2.95;;;9.70;99.90;;;;;;4985464;28;20598;-73
2024/03/27 07:14:21;;;;;;;8.10;3.00;;;9.80;99.90;;;;;;4997054;28;20116;-71
2024/03/27 07:16:46;;;;;;;8.50;2.72;;;9.80;99.90;;;;;;5005690;28;20435;-71
2024/03/27 07:19:12;;;;;;;14.48;4.18;;;9.80;99.90;;;;;;4999429;28;20853;-73
2024/03/27 07:21:38;;;;;;;5.43;2.30;;;9.80;99.90;;;;;;5008611;28;20038;-73
2024/03/27 07:24:06;;;;;;;5.15;2.50;;;9.80;99.90;;;;;;4982351;28;20057;-73
2024/03/27 07:26:37;;;;;;;7.63;1.73;;;9.70;99.90;;;;;;5004337;28;20563;-75
2024/03/27 07:29:03;;;;;;;7.47;1.33;;;9.70;99.90;;;;;;4982446;28;20176;-74
2024/03/27 07:31:29;;;;;;;3.95;1.67;;;9.70;99.90;;;;;;5005300;28;20125;-72
2024/03/27 07:33:55;;;;;;;4.18;1.77;;;9.70;99.90;;;;;;5001510;28;20208;-72
2024/03/27 07:36:20;;;;;;;7.10;1.65;;;9.70;99.90;;;;;;4997992;28;20044;-72
2024/03/27 07:38:46;;;;;;;4.30;1.30;;;9.70;99.90;;;;;;4996115;28;20029;-72
2024/03/27 07:41:12;;;;;;;5.35;1.60;;;9.70;99.90;;;;;;4999811;28;20048;-72
2024/03/27 07:43:37;;;;;;;5.63;1.42;;;9.70;99.90;;;;;;5006168;28;20034;-71
2024/03/27 07:46:04;;;;;;;6.25;2.22;;;9.80;99.90;;;;;;5002168;28;20038;-69
2024/03/27 07:48:30;;;;;;;5.20;2.13;;;9.80;99.90;;;;;;5000182;28;20045;-74
2024/03/27 07:50:56;;;;;;;6.53;1.70;;;9.90;99.90;;;;;;5001099;28;20042;-73
2024/03/27 07:53:21;;;;;;;6.88;1.73;;;10.00;99.90;;;;;;5000496;28;20757;-73
2024/03/27 07:55:56;;;;;;;4.32;1.40;;;10.00;99.90;;;;;;5002840;28;20046;-74
2024/03/27 07:58:22;;;;;;;5.93;1.63;;;10.00;99.90;;;;;;4995677;28;20042;-72
2024/03/27 08:00:49;;;;;;;5.72;1.30;;;10.00;99.90;;;;;;4994427;28;20042;-72
2024/03/27 08:03:15;;;;;;;6.80;1.48;;;10.00;99.90;;;;;;4997205;28;20033;-71
2024/03/27 08:05:40;;;;;;;3.47;1.38;;;10.10;99.90;;;;;;4993641;28;20080;-69
2024/03/27 08:08:06;;;;;;;2.03;1.20;;;10.10;99.90;;;;;;4999641;28;20026;-71
2024/03/27 08:10:31;;;;;;;3.50;1.23;;;10.10;99.90;;;;;;5005299;28;20033;-72
2024/03/27 08:12:57;;;;;;;4.97;1.58;;;10.10;99.90;;;;;;4991938;28;20488;-72
2024/03/27 08:15:23;;;;;;;2.85;1.30;;;10.10;99.90;;;;;;4996311;28;20553;-71
2024/03/27 08:17:48;;;;;;;7.13;2.03;;;10.30;99.90;;;;;;5004470;28;20026;-72
2024/03/27 08:20:14;;;;;;;3.83;1.63;;;10.30;99.90;;;;;;4984368;28;20039;-71
2024/03/27 08:22:40;;;;;;;3.05;1.92;;;10.40;99.90;;;;;;4985014;28;20025;-74
2024/03/27 08:25:06;;;;;;;4.03;2.15;;;10.60;99.90;;;;;;4971328;28;20085;-73
2024/03/27 08:27:32;;;;;;;4.35;2.03;;;10.70;99.90;;;;;;5005076;28;20022;-71
2024/03/27 08:29:58;;;;;;;3.25;1.77;;;10.70;99.90;;;;;;4997040;28;20484;-71
2024/03/27 08:32:23;;;;;;;2.78;1.60;;;10.70;99.90;;;;;;4992343;28;20582;-72
2024/03/27 08:34:49;;;;;;;3.45;1.70;;;10.80;99.90;;;;;;4998011;28;20116;-72
2024/03/27 08:37:14;;;;;;;2.70;1.60;;;11.00;99.90;;;;;;4999852;28;20164;-71
2024/03/27 08:39:42;;;;;;;3.95;1.65;;;11.10;99.90;;;;;;5002505;28;20053;-72
2024/03/27 08:42:07;;;;;;;6.82;1.48;;;11.20;99.90;;;;;;4999676;28;20026;-69
2024/03/27 08:44:33;;;;;;;3.28;1.40;;;11.30;99.90;;;;;;5000615;28;20037;-72
2024/03/27 08:46:58;;;;;;;1.88;1.30;;;11.30;99.90;;;;;;4990977;28;20044;-70
2024/03/27 08:49:24;;;;;;;4.05;1.65;;;11.40;99.90;;;;;;4999618;28;20073;-74
2024/03/27 08:51:50;;;;;;;3.25;1.73;;;11.50;99.90;;;;;;5006350;28;20083;-71
2024/03/27 08:54:15;;;;;;;2.90;1.27;;;11.40;99.90;;;;;;5003599;28;20497;-71
2024/03/27 08:56:41;;;;;;;2.08;1.40;;;11.40;99.90;;;;;;5004853;28;20480;-72
2024/03/27 08:59:06;;;;;;;2.33;1.35;;;11.40;99.90;;;;;;5005138;28;20899;-72
2024/03/27 09:01:32;;;;;;;4.70;2.25;;;11.40;99.90;;;;;;5003118;28;20038;-73
2024/03/27 09:03:58;;;;;;;5.20;1.60;;;11.30;99.90;;;;;;5002997;28;20058;-73
2024/03/27 09:06:24;;;;;;;2.97;1.70;;;11.20;99.90;;;;;;4998697;28;20478;-72
2024/03/27 09:08:49;;;;;;;3.63;1.48;;;11.10;99.90;;;;;;5002127;28;20034;-69
2024/03/27 09:11:15;;;;;;;4.57;2.40;;;11.00;99.90;;;;;;5007991;28;20030;-72
2024/03/27 09:13:41;;;;;;;6.28;2.30;;;10.90;99.90;;;;;;5000106;28;20125;-73
2024/03/27 09:16:08;;;;;;;10.10;2.17;;;10.80;99.90;;;;;;5002927;28;20399;-73
2024/03/27 09:18:34;;;;;;;4.40;1.88;;;10.80;99.90;;;;;;4992326;28;20050;-73
2024/03/27 09:21:00;;;;;;;3.92;1.50;;;10.90;99.90;;;;;;5000542;28;20120;-71
2024/03/27 09:23:27;;;;;;;7.40;1.80;;;10.80;99.90;;;;;;5003841;28;20132;-73
2024/03/27 09:25:54;;;;;;;6.07;1.90;;;10.70;99.90;;;;;;5006569;28;20038;-73
2024/03/27 09:28:21;;;;;;;5.07;2.17;;;10.70;99.90;;;;;;4998725;28;20117;-73
2024/03/27 09:30:47;;;;;;;3.92;1.95;;;10.60;99.90;;;;;;5003196;28;20037;-72
2024/03/27 09:33:13;;;;;;;3.92;1.60;;;10.50;99.90;;;;;;5005087;28;20037;-70
2024/03/27 09:35:38;;;;;;;3.97;1.52;;;10.40;99.90;;;;;;5007007;28;20026;-71
2024/03/27 09:38:04;;;;;;;2.78;1.50;;;10.40;99.90;;;;;;5002773;28;20094;-72
2024/03/27 09:40:29;;;;;;;4.38;1.85;;;10.40;99.90;;;;;;5003125;28;20125;-71
2024/03/27 09:42:56;;;;;;;4.72;1.90;;;10.40;99.90;;;;;;5008095;28;20064;-70
2024/03/27 09:45:23;;;;;;;3.90;1.88;;;10.40;99.90;;;;;;5008298;28;20026;-73
2024/03/27 09:47:50;;;;;;;4.38;2.33;;;10.40;99.90;;;;;;5004920;28;20030;-72
2024/03/27 09:50:15;;;;;;;4.05;1.90;;;10.40;99.90;;;;;;5007423;28;20100;-72
2024/03/27 09:52:42;;;;;;;3.78;2.08;;;10.40;99.90;;;;;;5001132;28;20030;-72
2024/03/27 09:55:11;;;;;;;3.13;1.85;;;10.40;99.90;;;;;;5002870;28;20572;-69
2024/03/27 09:57:37;;;;;;;2.22;1.33;;;10.50;99.90;;;;;;5006408;28;20112;-72
2024/03/27 10:00:06;;;;;;;9.48;2.75;;;10.70;99.90;;;;;;5004533;28;20037;-72
2024/03/27 10:02:32;;;;;;;3.67;1.45;;;10.80;99.90;;;;;;5008631;28;20038;-72
2024/03/27 10:04:58;;;;;;;2.83;1.45;;;10.90;99.90;;;;;;5005976;28;20403;-72
2024/03/27 10:07:24;;;;;;;6.38;1.50;;;11.10;99.90;;;;;;5005799;28;20041;-69
2024/03/27 10:09:49;;;;;;;5.00;1.30;;;11.40;99.90;;;;;;5004739;28;20121;-72
2024/03/27 10:12:15;;;;;;;2.60;0.90;;;11.60;99.90;;;;;;5002390;28;20073;-72
2024/03/27 10:14:40;;;;;;;2.97;1.30;;;11.80;99.90;;;;;;5011941;28;20041;-72
2024/03/27 10:17:07;;;;;;;4.30;0.93;;;12.00;99.90;;;;;;4993447;28;20033;-73
2024/03/27 10:19:32;;;;;;;1.50;0.77;;;12.30;99.90;;;;;;5007970;28;20507;-73
2024/03/27 10:21:59;;;;;;;1.38;0.77;;;12.50;99.90;;;;;;4998575;28;20042;-73
2024/03/27 10:24:25;;;;;;;2.28;0.95;;;12.60;99.90;;;;;;5004500;28;20038;-72
2024/03/27 10:26:51;;;;;;;3.47;0.80;;;12.80;99.90;;;;;;5006686;28;20042;-72
2024/03/27 10:29:17;;;;;;;3.17;0.60;;;12.80;99.90;;;;;;5005114;28;20065;-72
2024/03/27 10:31:43;;;;;;;1.20;0.50;;;12.80;99.90;;;;;;5006880;28;20062;-73
2024/03/27 10:34:09;;;;;;;1.13;0.65;;;12.70;99.90;;;;;;4987111;28;20042;-71
2024/03/27 10:36:35;;;;;;;1.95;0.88;;;12.70;99.90;;;;;;5005835;28;20030;-72
2024/03/27 10:39:07;;;;;;;1.33;0.55;;;12.80;99.90;;;;;;5011159;28;20438;-73
2024/03/27 10:41:33;;;;;;;1.05;0.52;;;12.90;99.90;;;;;;4998680;28;20422;-71
2024/03/27 10:44:00;;;;;;;2.08;0.55;;;13.00;99.90;;;;;;4999454;28;20042;-71
2024/03/27 10:46:27;;;;;;;1.58;0.73;;;13.00;99.90;;;;;;5004286;28;20034;-72
2024/03/27 10:48:55;;;;;;;1.92;0.70;;;13.20;99.90;;;;;;5004800;28;20069;-71
2024/03/27 10:51:24;;;;;;;0.95;0.47;;;13.30;99.90;;;;;;5001950;28;20026;-72
2024/03/27 10:53:49;;;;;;;1.63;0.55;;;13.30;99.90;;;;;;5004730;28;20092;-71
2024/03/27 10:56:17;;;;;;;2.40;0.52;;;13.40;99.90;;;;;;5000624;28;20053;-72
2024/03/27 10:58:43;;;;;;;0.98;0.40;;;13.30;99.90;;;;;;5003028;28;20035;-72
2024/03/27 11:01:10;;;;;;;2.83;0.70;;;13.30;99.90;;;;;;5001525;28;20054;-72
2024/03/27 11:03:39;;;;;;;3.00;0.43;;;13.30;99.90;;;;;;5001401;28;20065;-74
2024/03/27 11:06:05;;;;;;;0.90;0.47;;;13.30;99.90;;;;;;5006937;28;20378;-72
2024/03/27 11:08:32;;;;;;;1.35;0.60;;;13.30;99.90;;;;;;5004611;28;20029;-71
2024/03/27 11:11:09;;;;;;;1.38;0.52;;;13.30;99.90;;;;;;5003262;28;20038;-72
2024/03/27 11:13:35;;;;;;;2.92;0.50;;;13.20;99.90;;;;;;5003525;28;20048;-73
2024/03/27 11:16:01;;;;;;;0.98;0.55;;;13.10;99.90;;;;;;5001597;28;20041;-72
2024/03/27 11:18:33;;;;;;;2.15;0.45;;;13.10;99.90;;;;;;4997687;28;20042;-73
2024/03/27 11:21:01;;;;;;;3.22;0.80;;;13.00;99.90;;;;;;5002800;28;20061;-70
2024/03/27 11:23:34;;;;;;;3.47;0.47;;;13.10;99.90;;;;;;4997900;28;20112;-73
2024/03/27 11:26:03;;;;;;;1.38;0.40;;;13.20;99.90;;;;;;5004145;28;20038;-71
2024/03/27 11:28:29;;;;;;;3.35;0.47;;;13.30;99.90;;;;;;5004637;28;20418;-72
2024/03/27 11:30:55;;;;;;;2.22;0.50;;;13.20;99.90;;;;;;4965356;28;20052;-72
2024/03/27 11:33:24;;;;;;;1.05;0.30;;;13.20;99.90;;;;;;4968043;28;20034;-74
2024/03/27 11:35:53;;;;;;;2.63;0.40;;;13.20;99.90;;;;;;4999937;28;20034;-70
2024/03/27 11:38:23;;;;;;;1.42;0.50;;;13.30;99.90;;;;;;4985782;28;20033;-72
2024/03/27 11:40:52;;;;;;;1.98;0.50;;;13.30;99.90;;;;;;5000881;28;20212;-70
2024/03/27 11:43:19;;;;;;;2.35;0.50;;;13.20;99.90;;;;;;4998157;28;20524;-73
2024/03/27 11:45:46;;;;;;;0.60;0.30;;;13.20;99.90;;;;;;4996028;28;20196;-73
2024/03/27 11:48:12;;;;;;;4.25;0.60;;;13.20;99.90;;;;;;5003095;28;20077;-73
2024/03/27 11:50:38;;;;;;;3.03;1.13;;;13.30;99.90;;;;;;4999973;28;20452;-73
2024/03/27 11:53:07;;;;;;;2.85;0.65;;;13.40;99.90;;;;;;5005620;28;20095;-73
2024/03/27 11:55:32;;;;;;;2.55;0.68;;;13.40;99.90;;;;;;4999193;28;20065;-71
2024/03/27 11:57:58;;;;;;;2.53;0.73;;;13.40;99.90;;;;;;4999164;28;20037;-71
2024/03/27 12:00:24;;;;;;;3.25;0.80;;;13.50;99.90;;;;;;4993688;28;20056;-70
2024/03/27 12:02:49;;;;;;;2.05;0.80;;;13.40;99.90;;;;;;5003579;28;20113;-69
2024/03/27 12:05:17;;;;;;;1.50;0.70;;;13.50;99.90;;;;;;5004866;28;20711;-74
2024/03/27 12:07:42;;;;;;;3.85;1.20;;;13.60;99.90;;;;;;5002027;28;20085;-74
2024/03/27 12:10:09;;;;;;;0.52;0.40;;;13.60;99.90;;;;;;4999300;28;20526;-72
2024/03/27 12:12:35;;;;;;;1.38;0.50;;;13.60;99.90;;;;;;5001168;28;20515;-72
2024/03/27 12:15:01;;;;;;;3.00;0.82;;;13.60;99.90;;;;;;5003812;28;20041;-72
2024/03/27 12:17:37;;;;;;;1.10;0.85;;;13.50;99.90;;;;;;5001389;28;20026;-73
2024/03/27 12:20:04;;;;;;;2.88;0.57;;;13.50;99.90;;;;;;4999448;28;20100;-73
2024/03/27 12:22:31;;;;;;;2.65;0.80;;;13.40;99.90;;;;;;4996048;28;20052;-74
2024/03/27 12:24:56;;;;;;;4.18;0.88;;;13.40;99.90;;;;;;5006626;28;20501;-70
2024/03/27 12:27:30;;;;;;;2.80;0.70;;;13.40;99.90;;;;;;5005378;28;20077;-74
2024/03/27 12:29:56;;;;;;;3.25;0.88;;;13.40;99.90;;;;;;5004404;28;20042;-70
2024/03/27 12:32:24;;;;;;;1.63;0.77;;;13.40;99.90;;;;;;5003855;28;20042;-73
2024/03/27 12:34:50;;;;;;;1.10;0.63;;;13.30;99.90;;;;;;4981626;28;20511;-70
2024/03/27 12:37:17;;;;;;;2.38;0.70;;;13.20;99.90;;;;;;5001141;28;20518;-72
2024/03/27 12:39:43;;;;;;;6.53;1.85;;;13.10;99.90;;;;;;5003476;28;20042;-69
2024/03/27 12:42:09;;;;;;;1.88;0.60;;;13.00;99.90;;;;;;5002796;28;20029;-68